createdAt,value
2018-07-14T00:01:10.824Z,16.00
2018-07-14T00:03:39.621Z,16.00
2018-07-14T00:06:08.402Z,16.00
2018-07-14T00:08:37.209Z,16.00
2018-07-14T00:11:05.975Z,16.00
2018-07-14T00:13:34.806Z,16.00
2018-07-14T00:16:03.597Z,15.90
2018-07-14T00:18:32.397Z,15.90
2018-07-14T00:21:01.169Z,15.90
2018-07-14T00:23:29.939Z,15.90
2018-07-14T00:26:01.285Z,15.90
2018-07-14T00:28:31.628Z,15.80
2018-07-14T00:31:00.389Z,15.80
2018-07-14T00:35:58.390Z,15.90
2018-07-14T00:38:27.629Z,16.00
2018-07-14T00:40:56.417Z,15.80
2018-07-14T00:43:25.182Z,15.80
2018-07-14T00:45:53.971Z,15.70
2018-07-14T00:48:22.748Z,15.70
2018-07-14T00:50:51.628Z,15.70
2018-07-14T00:53:20.424Z,15.70
2018-07-14T00:55:49.184Z,15.70
2018-07-14T00:58:18.021Z,15.60
2018-07-14T01:00:47.042Z,15.60
2018-07-14T01:03:15.833Z,15.60
2018-07-14T01:05:44.580Z,15.60
2018-07-14T01:08:13.356Z,15.60
2018-07-14T01:10:42.243Z,15.60
2018-07-14T01:13:10.998Z,15.50
2018-07-14T01:15:39.784Z,15.50
2018-07-14T01:18:08.539Z,15.50
2018-07-14T01:20:37.327Z,15.50
2018-07-14T01:25:34.741Z,15.50
2018-07-14T01:28:03.545Z,15.50
2018-07-14T01:30:32.351Z,15.40
2018-07-14T01:33:01.140Z,15.40
2018-07-14T01:35:30.050Z,15.40
2018-07-14T01:37:58.905Z,15.40
2018-07-14T01:40:27.690Z,15.50
2018-07-14T01:42:56.454Z,15.50
2018-07-14T01:45:25.694Z,15.60
2018-07-14T01:47:54.477Z,15.60
2018-07-14T01:50:23.245Z,15.60
2018-07-14T01:52:52.027Z,15.60
2018-07-14T01:55:20.777Z,15.50
2018-07-14T01:57:49.881Z,15.50
2018-07-14T02:00:18.668Z,15.50
2018-07-14T02:02:47.478Z,15.50
2018-07-14T02:05:16.258Z,15.40
2018-07-14T02:07:45.039Z,15.40
2018-07-14T02:10:13.785Z,15.40
2018-07-14T02:12:42.581Z,15.50
2018-07-14T02:15:11.381Z,15.50
2018-07-14T02:17:40.154Z,15.60
2018-07-14T02:20:08.984Z,15.60
2018-07-14T02:22:37.881Z,15.70
2018-07-14T02:25:06.630Z,15.70
2018-07-14T02:27:35.485Z,15.80
2018-07-14T02:30:04.315Z,15.90
2018-07-14T02:32:33.090Z,15.90
2018-07-14T02:35:01.973Z,16.00
2018-07-14T02:39:59.286Z,15.90
2018-07-14T02:42:28.091Z,15.90
2018-07-14T02:44:56.873Z,15.90
2018-07-14T02:47:25.650Z,16.00
2018-07-14T02:49:54.416Z,16.00
2018-07-14T02:52:23.197Z,15.80
2018-07-14T02:54:52.244Z,15.70
2018-07-14T02:57:21.109Z,15.60
2018-07-14T02:59:49.958Z,15.70
2018-07-14T03:02:18.707Z,15.70
2018-07-14T03:04:47.610Z,15.60
2018-07-14T03:07:16.453Z,15.70
2018-07-14T03:09:45.419Z,15.70
2018-07-14T03:12:14.181Z,15.70
2018-07-14T03:14:42.950Z,15.50
2018-07-14T03:17:11.734Z,15.40
2018-07-14T03:19:40.578Z,15.50
2018-07-14T03:22:09.419Z,15.50
2018-07-14T03:24:38.217Z,15.50
2018-07-14T03:27:07.090Z,15.50
2018-07-14T03:29:35.874Z,15.50
2018-07-14T03:32:05.518Z,15.60
2018-07-14T03:34:34.306Z,15.70
2018-07-14T03:37:03.074Z,15.80
2018-07-14T03:39:31.873Z,15.80
2018-07-14T03:42:00.816Z,15.80
2018-07-14T03:44:29.525Z,15.80
2018-07-14T03:46:58.376Z,15.90
2018-07-14T03:49:27.116Z,15.80
2018-07-14T03:51:55.956Z,15.90
2018-07-14T03:54:24.753Z,16.00
2018-07-14T03:56:53.550Z,16.10
2018-07-14T03:59:22.310Z,16.50
2018-07-14T04:01:51.067Z,17.10
2018-07-14T04:04:19.832Z,18.00
2018-07-14T04:06:48.861Z,18.20
2018-07-14T04:09:17.633Z,18.20
2018-07-14T04:11:46.394Z,18.20
2018-07-14T04:14:15.183Z,18.10
2018-07-14T04:16:44.070Z,17.90
2018-07-14T04:19:12.849Z,17.70
2018-07-14T04:21:41.673Z,17.50
2018-07-14T04:24:10.469Z,17.50
2018-07-14T04:26:39.270Z,17.60
2018-07-14T04:29:08.066Z,17.80
2018-07-14T04:31:36.966Z,17.80
2018-07-14T04:34:05.752Z,17.80
2018-07-14T04:36:34.574Z,17.80
2018-07-14T04:39:04.529Z,17.90
2018-07-14T04:41:33.302Z,17.90
2018-07-14T04:44:02.074Z,18.00
2018-07-14T04:46:30.905Z,18.00
2018-07-14T04:48:59.661Z,18.10
2018-07-14T04:51:28.509Z,18.30
2018-07-14T04:53:57.278Z,18.40
2018-07-14T04:56:26.114Z,18.50
2018-07-14T04:58:54.925Z,18.40
2018-07-14T05:01:23.812Z,18.30
2018-07-14T05:03:52.726Z,18.10
2018-07-14T05:06:21.544Z,18.20
2018-07-14T05:08:50.430Z,18.30
2018-07-14T05:11:19.221Z,18.10
2018-07-14T05:13:47.992Z,17.80
2018-07-14T05:16:16.803Z,17.80
2018-07-14T05:18:45.590Z,17.90
2018-07-14T05:21:14.550Z,18.00
2018-07-14T05:23:43.325Z,18.30
2018-07-14T05:26:12.096Z,18.50
2018-07-14T05:28:41.024Z,18.70
2018-07-14T05:31:09.709Z,18.70
2018-07-14T05:33:38.468Z,18.70
2018-07-14T05:36:07.544Z,18.90
2018-07-14T05:38:36.346Z,18.90
2018-07-14T05:41:05.262Z,18.80
2018-07-14T05:43:34.254Z,18.90
2018-07-14T05:46:03.138Z,18.90
2018-07-14T05:51:00.912Z,19.10
2018-07-14T05:53:29.658Z,19.10
2018-07-14T05:55:58.432Z,19.20
2018-07-14T05:58:27.469Z,19.10
2018-07-14T06:00:56.234Z,19.10
2018-07-14T06:03:24.994Z,18.90
2018-07-14T06:05:53.789Z,19.00
2018-07-14T06:08:22.873Z,19.00
2018-07-14T06:10:51.637Z,19.20
2018-07-14T06:13:20.430Z,19.40
2018-07-14T06:15:49.282Z,19.60
2018-07-14T06:18:18.083Z,19.60
2018-07-14T06:20:46.885Z,19.40
2018-07-14T06:23:15.989Z,19.40
2018-07-14T06:25:44.863Z,19.40
2018-07-14T06:28:13.640Z,19.00
2018-07-14T06:30:42.701Z,19.00
2018-07-14T06:33:11.501Z,19.20
2018-07-14T06:35:40.266Z,19.40
2018-07-14T06:38:09.085Z,19.70
2018-07-14T06:40:38.217Z,19.60
2018-07-14T06:43:07.032Z,19.90
2018-07-14T06:45:36.017Z,20.20
2018-07-14T06:48:04.821Z,20.10
2018-07-14T06:50:33.621Z,20.10
2018-07-14T06:53:02.622Z,20.20
2018-07-14T06:55:31.410Z,20.40
2018-07-14T07:00:28.757Z,20.40
2018-07-14T07:02:57.613Z,20.20
2018-07-14T07:05:26.497Z,20.10
2018-07-14T07:07:55.292Z,20.10
2018-07-14T07:10:24.046Z,20.50
2018-07-14T07:12:53.032Z,20.70
2018-07-14T07:15:21.834Z,20.90
2018-07-14T07:17:50.662Z,21.10
2018-07-14T07:20:19.552Z,20.90
2018-07-14T07:22:48.327Z,21.00
2018-07-14T07:25:17.145Z,21.10
2018-07-14T07:27:46.159Z,21.00
2018-07-14T07:30:14.931Z,20.80
2018-07-14T07:32:43.749Z,20.60
2018-07-14T07:35:12.514Z,20.70
2018-07-14T07:37:41.557Z,21.00
2018-07-14T07:40:10.326Z,21.00
2018-07-14T07:42:39.161Z,20.80
2018-07-14T07:45:07.965Z,20.80
2018-07-14T07:47:36.865Z,20.90
2018-07-14T07:50:05.678Z,21.00
2018-07-14T07:52:34.774Z,20.90
2018-07-14T07:55:03.542Z,20.90
2018-07-14T07:57:32.378Z,20.80
2018-07-14T08:00:01.181Z,20.70
2018-07-14T08:02:29.977Z,20.60
2018-07-14T08:04:58.774Z,20.80
2018-07-14T08:07:27.679Z,20.90
2018-07-14T08:09:56.493Z,21.00
2018-07-14T08:12:25.277Z,21.20
2018-07-14T08:14:54.658Z,21.50
2018-07-14T08:17:23.494Z,21.50
2018-07-14T08:19:52.718Z,21.60
2018-07-14T08:22:21.498Z,21.80
2018-07-14T08:27:19.071Z,21.90
2018-07-14T08:29:47.929Z,21.70
2018-07-14T08:32:16.731Z,22.00
2018-07-14T08:34:46.031Z,22.40
2018-07-14T08:37:15.044Z,22.50
2018-07-14T08:39:43.940Z,22.20
2018-07-14T08:44:41.345Z,22.20
2018-07-14T08:47:10.150Z,22.40
2018-07-14T08:49:39.045Z,22.20
2018-07-14T08:52:09.326Z,22.20
2018-07-14T08:54:38.339Z,22.30
2018-07-14T08:57:07.118Z,22.30
2018-07-14T08:59:35.889Z,22.70
2018-07-14T09:02:04.789Z,22.70
2018-07-14T09:04:33.695Z,22.50
2018-07-14T09:07:02.559Z,22.40
2018-07-14T09:09:31.369Z,22.10
2018-07-14T09:12:00.121Z,22.10
2018-07-14T09:14:28.908Z,22.40
2018-07-14T09:16:57.697Z,22.30
2018-07-14T09:19:26.502Z,22.50
2018-07-14T09:21:55.406Z,22.80
2018-07-14T09:24:24.194Z,22.60
2018-07-14T09:26:53.258Z,22.80
2018-07-14T09:29:22.262Z,23.00
2018-07-14T09:31:51.901Z,23.00
2018-07-14T09:34:20.662Z,22.90
2018-07-14T09:36:49.438Z,23.10
2018-07-14T09:39:18.217Z,23.20
2018-07-14T09:41:47.001Z,23.00
2018-07-14T09:44:15.946Z,22.80
2018-07-14T09:46:44.745Z,22.90
2018-07-14T09:49:13.610Z,23.10
2018-07-14T09:51:42.394Z,23.10
2018-07-14T09:54:11.182Z,23.10
2018-07-14T09:56:39.983Z,23.20
2018-07-14T09:59:09.677Z,23.00
2018-07-14T10:01:38.474Z,22.80
2018-07-14T10:04:07.285Z,22.80
2018-07-14T10:06:36.182Z,22.80
2018-07-14T10:09:06.034Z,23.00
2018-07-14T10:11:34.806Z,23.20
2018-07-14T10:14:03.709Z,23.50
2018-07-14T10:16:32.481Z,23.60
2018-07-14T10:19:01.290Z,23.90
2018-07-14T10:21:30.109Z,23.80
2018-07-14T10:23:58.881Z,23.70
2018-07-14T10:26:27.975Z,23.20
2018-07-14T10:28:56.850Z,23.30
2018-07-14T10:31:25.620Z,23.20
2018-07-14T10:33:54.404Z,23.50
2018-07-14T10:36:23.166Z,23.80
2018-07-14T10:38:52.162Z,24.00
2018-07-14T10:41:20.916Z,23.90
2018-07-14T10:43:49.729Z,24.00
2018-07-14T10:46:18.521Z,23.70
2018-07-14T10:48:47.334Z,24.00
2018-07-14T10:51:16.228Z,24.50
2018-07-14T10:53:44.998Z,24.20
2018-07-14T10:56:14.046Z,24.30
2018-07-14T10:58:43.041Z,24.50
2018-07-14T11:01:12.057Z,24.70
2018-07-14T11:03:40.853Z,24.40
2018-07-14T11:06:09.662Z,24.50
2018-07-14T11:08:38.559Z,24.50
2018-07-14T11:11:07.348Z,24.60
2018-07-14T11:13:36.168Z,24.90
2018-07-14T11:16:04.953Z,24.90
2018-07-14T11:18:33.717Z,25.00
2018-07-14T11:21:02.792Z,24.80
2018-07-14T11:23:31.575Z,24.50
2018-07-14T11:26:00.342Z,24.70
2018-07-14T11:28:29.305Z,24.80
2018-07-14T11:30:58.382Z,24.60
2018-07-14T11:33:27.141Z,24.30
2018-07-14T11:35:55.945Z,24.40
2018-07-14T11:38:24.786Z,24.20
2018-07-14T11:40:53.578Z,24.20
2018-07-14T11:43:22.477Z,24.50
2018-07-14T11:48:19.790Z,25.00
2018-07-14T11:50:48.999Z,25.20
2018-07-14T11:53:17.765Z,25.10
2018-07-14T11:55:46.514Z,25.10
2018-07-14T11:58:15.526Z,24.80
2018-07-14T12:00:44.281Z,24.50
2018-07-14T12:03:13.058Z,24.50
2018-07-14T12:05:41.910Z,24.40
2018-07-14T12:08:10.785Z,24.50
2018-07-14T12:10:39.614Z,24.50
2018-07-14T12:13:08.413Z,24.70
2018-07-14T12:15:37.321Z,24.60
2018-07-14T12:18:06.687Z,24.70
2018-07-14T12:20:35.471Z,24.80
2018-07-14T12:23:04.335Z,24.70
2018-07-14T12:25:33.233Z,24.80
2018-07-14T12:28:02.022Z,24.70
2018-07-14T12:30:30.864Z,24.30
2018-07-14T12:32:59.639Z,24.20
2018-07-14T12:35:28.446Z,24.30
2018-07-14T12:37:57.249Z,24.50
2018-07-14T12:40:26.026Z,24.60
2018-07-14T12:42:54.822Z,24.60
2018-07-14T12:45:23.585Z,24.60
2018-07-14T12:47:52.378Z,24.80
2018-07-14T12:50:21.253Z,25.10
2018-07-14T12:52:50.054Z,24.90
2018-07-14T12:55:18.959Z,25.10
2018-07-14T12:57:47.753Z,25.20
2018-07-14T13:00:16.553Z,25.40
2018-07-14T13:02:45.330Z,25.40
2018-07-14T13:05:14.336Z,25.00
2018-07-14T13:07:43.420Z,24.50
2018-07-14T13:10:12.237Z,24.70
2018-07-14T13:12:40.995Z,24.60
2018-07-14T13:15:09.781Z,24.80
2018-07-14T13:17:38.537Z,24.90
2018-07-14T13:20:07.393Z,25.00
2018-07-14T13:22:36.197Z,25.30
2018-07-14T13:25:04.961Z,25.40
2018-07-14T13:27:33.774Z,25.30
2018-07-14T13:30:02.737Z,25.40
2018-07-14T13:32:31.795Z,25.50
2018-07-14T13:35:07.301Z,25.50
2018-07-14T13:37:36.150Z,25.60
2018-07-14T13:40:05.058Z,25.60
2018-07-14T13:42:33.972Z,25.50
2018-07-14T13:45:02.778Z,25.80
2018-07-14T13:47:31.662Z,26.20
2018-07-14T13:50:00.416Z,26.20
2018-07-14T13:52:29.270Z,26.20
2018-07-14T13:54:58.064Z,26.50
2018-07-14T13:57:27.171Z,26.50
2018-07-14T13:59:56.482Z,25.90
2018-07-14T14:04:53.885Z,25.60
2018-07-14T14:07:22.670Z,25.80
2018-07-14T14:09:51.490Z,25.80
2018-07-14T14:12:20.285Z,26.10
2018-07-14T14:14:49.082Z,26.50
2018-07-14T14:17:17.849Z,26.50
2018-07-14T14:19:46.680Z,26.40
2018-07-14T14:22:15.698Z,26.50
2018-07-14T14:24:44.481Z,26.20
2018-07-14T14:27:13.277Z,25.90
2018-07-14T14:29:42.074Z,26.00
2018-07-14T14:32:10.878Z,26.20
2018-07-14T14:34:39.699Z,26.50
2018-07-14T14:37:08.733Z,26.40
2018-07-14T14:39:37.509Z,26.60
2018-07-14T14:42:06.386Z,26.40
2018-07-14T14:44:35.214Z,26.10
2018-07-14T14:47:04.010Z,26.30
2018-07-14T14:49:32.773Z,26.60
2018-07-14T14:52:01.526Z,26.10
2018-07-14T14:54:30.309Z,25.90
2018-07-14T14:56:59.157Z,25.90
2018-07-14T14:59:27.918Z,26.00
2018-07-14T15:01:56.713Z,25.90
2018-07-14T15:04:25.521Z,26.50
2018-07-14T15:06:54.286Z,26.60
2018-07-14T15:09:23.066Z,26.80
2018-07-14T15:11:51.861Z,27.00
2018-07-14T15:14:20.713Z,27.20
2018-07-14T15:16:49.530Z,27.80
2018-07-14T15:19:18.341Z,28.80
2018-07-14T15:21:48.046Z,29.70
2018-07-14T15:24:17.055Z,30.70
2018-07-14T15:26:45.958Z,32.40
2018-07-14T15:29:14.758Z,33.40
2018-07-14T15:31:43.762Z,33.90
2018-07-14T15:34:12.562Z,33.80
2018-07-14T15:36:41.436Z,32.90
2018-07-14T15:39:10.781Z,31.60
2018-07-14T15:41:39.558Z,31.70
2018-07-14T15:44:08.321Z,31.40
2018-07-14T15:46:37.119Z,31.40
2018-07-14T15:49:05.945Z,30.90
2018-07-14T15:51:34.787Z,31.30
2018-07-14T15:54:03.578Z,32.20
2018-07-14T15:56:32.393Z,32.10
2018-07-14T15:59:01.290Z,33.30
2018-07-14T16:01:30.104Z,34.20
2018-07-14T16:03:58.893Z,35.10
2018-07-14T16:06:27.655Z,34.80
2018-07-14T16:08:56.474Z,32.90
2018-07-14T16:11:25.296Z,31.80
2018-07-14T16:13:54.077Z,32.00
2018-07-14T16:16:22.898Z,31.20
2018-07-14T16:18:51.903Z,31.40
2018-07-14T16:21:20.777Z,32.80
2018-07-14T16:23:49.613Z,33.20
2018-07-14T16:26:18.514Z,34.00
2018-07-14T16:28:47.383Z,33.90
2018-07-14T16:31:16.321Z,33.40
2018-07-14T16:33:45.322Z,32.50
2018-07-14T16:36:14.352Z,31.60
2018-07-14T16:38:43.446Z,32.40
2018-07-14T16:41:12.273Z,32.80
2018-07-14T16:43:41.181Z,33.20
2018-07-14T16:46:09.993Z,32.70
2018-07-14T16:48:38.789Z,31.20
2018-07-14T16:51:07.861Z,31.10
2018-07-14T16:53:36.897Z,30.50
2018-07-14T16:56:06.394Z,29.60
2018-07-14T16:58:35.196Z,28.50
2018-07-14T17:01:04.038Z,27.90
2018-07-14T17:03:32.977Z,27.30
2018-07-14T17:06:02.059Z,26.70
2018-07-14T17:08:30.925Z,26.00
2018-07-14T17:10:59.915Z,25.40
2018-07-14T17:13:29.043Z,25.10
2018-07-14T17:15:58.026Z,25.10
2018-07-14T17:18:26.829Z,25.10
2018-07-14T17:20:55.711Z,24.80
2018-07-14T17:23:24.595Z,24.80
2018-07-14T17:25:53.362Z,25.00
2018-07-14T17:28:22.414Z,24.80
2018-07-14T17:30:51.206Z,24.50
2018-07-14T17:33:20.139Z,24.30
2018-07-14T17:35:48.981Z,24.20
2018-07-14T17:38:17.753Z,24.00
2018-07-14T17:40:46.550Z,23.90
2018-07-14T17:43:15.337Z,23.80
2018-07-14T17:45:44.156Z,23.80
2018-07-14T17:48:12.957Z,23.90
2018-07-14T17:50:41.825Z,23.70
2018-07-14T17:53:10.918Z,23.80
2018-07-14T17:55:39.993Z,23.80
2018-07-14T17:58:08.779Z,23.70
2018-07-14T18:00:37.665Z,23.70
2018-07-14T18:05:34.970Z,25.50
2018-07-14T18:08:03.773Z,26.70
2018-07-14T18:10:32.666Z,26.90
2018-07-14T18:13:01.422Z,26.60
2018-07-14T18:15:30.281Z,26.30
2018-07-14T18:17:59.141Z,25.30
2018-07-14T18:20:27.989Z,24.70
2018-07-14T18:22:56.786Z,24.00
2018-07-14T18:25:25.590Z,23.50
2018-07-14T18:27:54.513Z,23.10
2018-07-14T18:30:23.594Z,22.70
2018-07-14T18:32:52.370Z,22.50
2018-07-14T18:35:21.170Z,22.40
2018-07-14T18:37:50.002Z,22.20
2018-07-14T18:40:18.802Z,22.20
2018-07-14T18:42:47.630Z,22.20
2018-07-14T18:45:16.398Z,22.00
2018-07-14T18:47:45.206Z,21.80
2018-07-14T18:50:14.105Z,21.70
2018-07-14T18:52:43.024Z,21.50
2018-07-14T18:55:12.026Z,21.40
2018-07-14T18:57:40.817Z,21.40
2018-07-14T19:00:09.582Z,21.30
2018-07-14T19:02:38.414Z,21.30
2018-07-14T19:05:07.281Z,21.30
2018-07-14T19:07:36.126Z,21.20
2018-07-14T19:10:05.233Z,21.00
2018-07-14T19:12:34.054Z,21.10
2018-07-14T19:15:02.939Z,21.00
2018-07-14T19:17:31.841Z,20.90
2018-07-14T19:20:00.649Z,20.80
2018-07-14T19:22:29.430Z,20.70
2018-07-14T19:24:58.229Z,20.70
2018-07-14T19:27:26.989Z,20.50
2018-07-14T19:29:55.769Z,20.50
2018-07-14T19:32:24.857Z,20.40
2018-07-14T19:34:53.698Z,20.40
2018-07-14T19:37:22.453Z,20.30
2018-07-14T19:39:51.341Z,20.30
2018-07-14T19:42:20.372Z,20.20
2018-07-14T19:44:49.101Z,20.20
2018-07-14T19:47:17.861Z,20.10
2018-07-14T19:49:46.667Z,20.10
2018-07-14T19:52:15.469Z,20.00
2018-07-14T19:54:44.409Z,19.90
2018-07-14T19:57:13.233Z,19.90
2018-07-14T19:59:42.019Z,19.90
2018-07-14T20:02:10.793Z,19.90
2018-07-14T20:04:39.646Z,19.80
2018-07-14T20:07:08.405Z,19.70
2018-07-14T20:09:37.201Z,19.60
2018-07-14T20:12:06.893Z,19.50
2018-07-14T20:14:35.809Z,19.30
2018-07-14T20:17:04.598Z,19.20
2018-07-14T20:19:33.432Z,19.30
2018-07-14T20:22:02.192Z,19.40
2018-07-14T20:24:31.006Z,19.40
2018-07-14T20:26:59.814Z,19.20
2018-07-14T20:29:28.697Z,19.10
2018-07-14T20:31:57.454Z,19.20
2018-07-14T20:34:26.318Z,19.20
2018-07-14T20:36:55.116Z,19.10
2018-07-14T20:39:24.018Z,19.00
2018-07-14T20:41:52.971Z,19.00
2018-07-14T20:44:21.721Z,19.00
2018-07-14T20:46:50.484Z,19.00
2018-07-14T20:49:19.271Z,18.90
2018-07-14T20:51:48.029Z,18.90
2018-07-14T20:54:16.925Z,18.80
2018-07-14T20:56:45.727Z,18.60
2018-07-14T20:59:14.553Z,18.50
2018-07-14T21:01:43.533Z,18.40
2018-07-14T21:04:12.302Z,18.30
2018-07-14T21:06:41.137Z,18.30
2018-07-14T21:09:09.933Z,18.40
2018-07-14T21:11:38.738Z,18.50
2018-07-14T21:14:07.602Z,18.50
2018-07-14T21:16:36.361Z,18.50
2018-07-14T21:19:05.370Z,18.40
2018-07-14T21:21:34.125Z,18.40
2018-07-14T21:24:02.910Z,18.40
2018-07-14T21:26:31.705Z,18.30
2018-07-14T21:29:00.482Z,18.30
2018-07-14T21:31:29.313Z,18.20
2018-07-14T21:33:58.150Z,18.00
2018-07-14T21:36:26.914Z,18.10
2018-07-14T21:38:55.683Z,17.90
2018-07-14T21:41:24.474Z,17.90
2018-07-14T21:43:53.557Z,17.70
2018-07-14T21:46:22.362Z,17.70
2018-07-14T21:48:51.162Z,17.70
2018-07-14T21:51:19.970Z,17.80
2018-07-14T21:53:48.761Z,17.80
2018-07-14T21:56:17.536Z,17.70
2018-07-14T21:58:46.365Z,17.50
2018-07-14T22:01:20.558Z,17.30
2018-07-14T22:03:49.361Z,17.10
2018-07-14T22:06:18.201Z,17.00
2018-07-14T22:08:47.001Z,16.90
2018-07-14T22:11:15.781Z,16.90
2018-07-14T22:13:44.590Z,16.90
2018-07-14T22:16:13.410Z,17.10
2018-07-14T22:18:42.166Z,17.20
2018-07-14T22:21:10.929Z,17.10
2018-07-14T22:23:39.798Z,17.10
2018-07-14T22:26:08.578Z,17.00
2018-07-14T22:28:37.334Z,17.10
2018-07-14T22:31:06.515Z,16.80
2018-07-14T22:33:35.322Z,16.90
2018-07-14T22:36:04.218Z,16.90
2018-07-14T22:38:33.130Z,17.00
2018-07-14T22:41:01.893Z,17.00
2018-07-14T22:43:30.726Z,16.70
2018-07-14T22:45:59.526Z,16.80
2018-07-14T22:48:28.334Z,16.80
2018-07-14T22:50:57.237Z,16.70
2018-07-14T22:53:26.007Z,16.60
2018-07-14T22:55:54.769Z,16.40
2018-07-14T22:58:23.554Z,16.40
2018-07-14T23:00:52.341Z,16.40
2018-07-14T23:03:21.449Z,16.50
2018-07-14T23:05:50.241Z,16.60
2018-07-14T23:08:19.002Z,16.60
2018-07-14T23:10:48.158Z,16.50
2018-07-14T23:13:16.953Z,16.40
2018-07-14T23:15:45.733Z,16.20
2018-07-14T23:18:14.534Z,16.20
2018-07-14T23:20:43.361Z,16.10
2018-07-14T23:23:12.119Z,15.90
2018-07-14T23:25:40.962Z,15.90
2018-07-14T23:28:09.966Z,15.90
2018-07-14T23:30:38.726Z,15.90
2018-07-14T23:33:07.569Z,15.80
2018-07-14T23:35:36.365Z,15.70
2018-07-14T23:38:05.154Z,15.50
2018-07-14T23:40:33.969Z,15.40
2018-07-14T23:43:02.757Z,15.30
2018-07-14T23:45:31.542Z,15.20
2018-07-14T23:48:00.361Z,15.10
2018-07-14T23:50:29.133Z,15.10
2018-07-14T23:52:57.973Z,15.10
2018-07-14T23:55:26.753Z,15.00
2018-07-14T23:57:55.573Z,15.00
